sensor_id;sensor_type;location;lat;lon;timestamp;P1;durP1;ratioP1;P2;durP2;ratioP2
54464;SDS011;40374;49.480;20.016;2022-09-14T00:02:06;5.32;;;4.22;;
54464;SDS011;40374;49.480;20.016;2022-09-14T00:04:33;7.60;;;4.43;;
54464;SDS011;40374;49.480;20.016;2022-09-14T00:07:00;8.23;;;5.30;;
54464;SDS011;40374;49.480;20.016;2022-09-14T00:09:27;7.45;;;4.82;;
54464;SDS011;40374;49.480;20.016;2022-09-14T00:11:55;9.07;;;4.63;;
54464;SDS011;40374;49.480;20.016;2022-09-14T00:14:22;10.50;;;5.75;;
54464;SDS011;40374;49.480;20.016;2022-09-14T00:16:53;8.73;;;5.88;;
54464;SDS011;40374;49.480;20.016;2022-09-14T00:19:21;9.20;;;6.22;;
54464;SDS011;40374;49.480;20.016;2022-09-14T00:21:50;12.55;;;5.70;;
54464;SDS011;40374;49.480;20.016;2022-09-14T00:24:17;7.95;;;4.85;;
54464;SDS011;40374;49.480;20.016;2022-09-14T00:26:45;9.05;;;4.65;;
54464;SDS011;40374;49.480;20.016;2022-09-14T00:29:12;9.07;;;4.05;;
54464;SDS011;40374;49.480;20.016;2022-09-14T00:31:41;7.75;;;4.22;;
54464;SDS011;40374;49.480;20.016;2022-09-14T00:34:10;9.93;;;4.78;;
54464;SDS011;40374;49.480;20.016;2022-09-14T00:36:42;9.50;;;4.70;;
54464;SDS011;40374;49.480;20.016;2022-09-14T00:39:11;5.68;;;4.82;;
54464;SDS011;40374;49.480;20.016;2022-09-14T00:41:40;5.03;;;4.43;;
54464;SDS011;40374;49.480;20.016;2022-09-14T00:46:45;6.65;;;4.43;;
54464;SDS011;40374;49.480;20.016;2022-09-14T00:49:23;6.75;;;4.85;;
54464;SDS011;40374;49.480;20.016;2022-09-14T00:54:18;8.52;;;4.20;;
54464;SDS011;40374;49.480;20.016;2022-09-14T00:56:46;5.38;;;4.22;;
54464;SDS011;40374;49.480;20.016;2022-09-14T00:59:18;6.38;;;4.90;;
54464;SDS011;40374;49.480;20.016;2022-09-14T01:01:46;7.93;;;4.78;;
54464;SDS011;40374;49.480;20.016;2022-09-14T01:04:14;4.95;;;4.32;;
54464;SDS011;40374;49.480;20.016;2022-09-14T01:06:43;5.00;;;3.88;;
54464;SDS011;40374;49.480;20.016;2022-09-14T01:11:49;9.07;;;5.40;;
54464;SDS011;40374;49.480;20.016;2022-09-14T01:14:53;6.35;;;4.72;;
54464;SDS011;40374;49.480;20.016;2022-09-14T01:19:45;6.80;;;4.78;;
54464;SDS011;40374;49.480;20.016;2022-09-14T01:22:18;6.15;;;4.25;;
54464;SDS011;40374;49.480;20.016;2022-09-14T01:24:54;6.50;;;5.03;;
54464;SDS011;40374;49.480;20.016;2022-09-14T01:27:24;7.53;;;4.40;;
54464;SDS011;40374;49.480;20.016;2022-09-14T01:30:08;9.60;;;4.88;;
54464;SDS011;40374;49.480;20.016;2022-09-14T01:32:38;13.13;;;4.65;;
54464;SDS011;40374;49.480;20.016;2022-09-14T01:35:15;8.60;;;5.18;;
54464;SDS011;40374;49.480;20.016;2022-09-14T01:42:39;11.85;;;5.97;;
54464;SDS011;40374;49.480;20.016;2022-09-14T01:45:08;8.63;;;4.82;;
54464;SDS011;40374;49.480;20.016;2022-09-14T01:47:41;9.15;;;5.43;;
54464;SDS011;40374;49.480;20.016;2022-09-14T01:50:15;9.07;;;5.20;;
54464;SDS011;40374;49.480;20.016;2022-09-14T01:52:49;7.18;;;5.55;;
54464;SDS011;40374;49.480;20.016;2022-09-14T01:55:19;7.53;;;5.50;;
54464;SDS011;40374;49.480;20.016;2022-09-14T01:57:57;6.97;;;5.35;;
54464;SDS011;40374;49.480;20.016;2022-09-14T02:00:25;13.38;;;5.50;;
54464;SDS011;40374;49.480;20.016;2022-09-14T02:02:56;8.18;;;5.65;;
54464;SDS011;40374;49.480;20.016;2022-09-14T02:07:57;11.45;;;7.95;;
54464;SDS011;40374;49.480;20.016;2022-09-14T02:10:26;15.40;;;9.15;;
54464;SDS011;40374;49.480;20.016;2022-09-14T02:12:53;17.88;;;11.63;;
54464;SDS011;40374;49.480;20.016;2022-09-14T02:15:21;23.05;;;14.35;;
54464;SDS011;40374;49.480;20.016;2022-09-14T02:17:48;23.65;;;14.00;;
54464;SDS011;40374;49.480;20.016;2022-09-14T02:20:24;19.98;;;14.10;;
54464;SDS011;40374;49.480;20.016;2022-09-14T02:22:53;22.73;;;14.68;;
54464;SDS011;40374;49.480;20.016;2022-09-14T02:25:20;21.63;;;14.25;;
54464;SDS011;40374;49.480;20.016;2022-09-14T02:27:47;23.88;;;15.82;;
54464;SDS011;40374;49.480;20.016;2022-09-14T02:30:15;26.30;;;15.73;;
54464;SDS011;40374;49.480;20.016;2022-09-14T02:35:24;21.77;;;14.90;;
54464;SDS011;40374;49.480;20.016;2022-09-14T02:40:41;35.05;;;13.63;;
54464;SDS011;40374;49.480;20.016;2022-09-14T02:45:47;18.13;;;10.52;;
54464;SDS011;40374;49.480;20.016;2022-09-14T02:56:13;19.25;;;10.20;;
54464;SDS011;40374;49.480;20.016;2022-09-14T02:58:42;11.30;;;8.23;;
54464;SDS011;40374;49.480;20.016;2022-09-14T03:01:14;14.23;;;9.52;;
54464;SDS011;40374;49.480;20.016;2022-09-14T03:03:41;13.68;;;8.80;;
54464;SDS011;40374;49.480;20.016;2022-09-14T03:06:08;16.95;;;9.02;;
54464;SDS011;40374;49.480;20.016;2022-09-14T03:08:36;13.52;;;8.95;;
54464;SDS011;40374;49.480;20.016;2022-09-14T03:11:03;19.55;;;10.77;;
54464;SDS011;40374;49.480;20.016;2022-09-14T03:13:31;22.33;;;11.65;;
54464;SDS011;40374;49.480;20.016;2022-09-14T03:16:06;40.65;;;24.65;;
54464;SDS011;40374;49.480;20.016;2022-09-14T03:18:34;20.83;;;11.90;;
54464;SDS011;40374;49.480;20.016;2022-09-14T03:21:08;19.67;;;12.23;;
54464;SDS011;40374;49.480;20.016;2022-09-14T03:23:37;20.85;;;10.80;;
54464;SDS011;40374;49.480;20.016;2022-09-14T03:26:14;16.55;;;9.70;;
54464;SDS011;40374;49.480;20.016;2022-09-14T03:28:42;16.15;;;10.15;;
54464;SDS011;40374;49.480;20.016;2022-09-14T03:31:10;30.77;;;16.23;;
54464;SDS011;40374;49.480;20.016;2022-09-14T03:33:37;36.00;;;17.33;;
54464;SDS011;40374;49.480;20.016;2022-09-14T03:36:15;35.17;;;20.17;;
54464;SDS011;40374;49.480;20.016;2022-09-14T03:38:47;31.80;;;18.08;;
54464;SDS011;40374;49.480;20.016;2022-09-14T03:41:15;26.95;;;16.52;;
54464;SDS011;40374;49.480;20.016;2022-09-14T03:43:42;23.25;;;12.38;;
54464;SDS011;40374;49.480;20.016;2022-09-14T03:46:11;16.63;;;9.70;;
54464;SDS011;40374;49.480;20.016;2022-09-14T03:48:41;17.38;;;10.00;;
54464;SDS011;40374;49.480;20.016;2022-09-14T03:51:10;18.27;;;9.55;;
54464;SDS011;40374;49.480;20.016;2022-09-14T03:53:38;19.20;;;10.23;;
54464;SDS011;40374;49.480;20.016;2022-09-14T03:56:10;16.92;;;9.98;;
54464;SDS011;40374;49.480;20.016;2022-09-14T03:58:37;17.23;;;9.20;;
54464;SDS011;40374;49.480;20.016;2022-09-14T04:01:06;16.63;;;9.88;;
54464;SDS011;40374;49.480;20.016;2022-09-14T04:03:34;16.20;;;9.20;;
54464;SDS011;40374;49.480;20.016;2022-09-14T04:06:01;21.20;;;11.75;;
54464;SDS011;40374;49.480;20.016;2022-09-14T04:08:31;15.02;;;10.27;;
54464;SDS011;40374;49.480;20.016;2022-09-14T04:10:59;16.33;;;11.45;;
54464;SDS011;40374;49.480;20.016;2022-09-14T04:13:26;19.35;;;10.77;;
54464;SDS011;40374;49.480;20.016;2022-09-14T04:15:59;16.42;;;9.55;;
54464;SDS011;40374;49.480;20.016;2022-09-14T04:18:27;13.93;;;9.68;;
54464;SDS011;40374;49.480;20.016;2022-09-14T04:20:59;43.53;;;17.48;;
54464;SDS011;40374;49.480;20.016;2022-09-14T04:23:33;32.53;;;16.20;;
54464;SDS011;40374;49.480;20.016;2022-09-14T04:26:12;83.25;;;39.33;;
54464;SDS011;40374;49.480;20.016;2022-09-14T04:28:40;64.25;;;29.15;;
54464;SDS011;40374;49.480;20.016;2022-09-14T04:31:08;47.10;;;22.13;;
54464;SDS011;40374;49.480;20.016;2022-09-14T04:33:36;47.20;;;22.52;;
54464;SDS011;40374;49.480;20.016;2022-09-14T04:36:06;47.33;;;22.90;;
54464;SDS011;40374;49.480;20.016;2022-09-14T04:38:34;39.78;;;17.40;;
54464;SDS011;40374;49.480;20.016;2022-09-14T04:41:15;32.40;;;15.40;;
54464;SDS011;40374;49.480;20.016;2022-09-14T04:43:43;24.23;;;12.85;;
54464;SDS011;40374;49.480;20.016;2022-09-14T04:46:14;24.98;;;14.15;;
54464;SDS011;40374;49.480;20.016;2022-09-14T04:48:42;29.30;;;15.10;;
54464;SDS011;40374;49.480;20.016;2022-09-14T04:51:13;20.90;;;12.65;;
54464;SDS011;40374;49.480;20.016;2022-09-14T04:53:43;26.80;;;13.65;;
54464;SDS011;40374;49.480;20.016;2022-09-14T04:56:11;24.50;;;12.90;;
54464;SDS011;40374;49.480;20.016;2022-09-14T04:58:45;27.73;;;13.55;;
54464;SDS011;40374;49.480;20.016;2022-09-14T05:01:18;23.67;;;13.30;;
54464;SDS011;40374;49.480;20.016;2022-09-14T05:03:46;22.52;;;13.23;;
54464;SDS011;40374;49.480;20.016;2022-09-14T05:06:14;25.15;;;12.27;;
54464;SDS011;40374;49.480;20.016;2022-09-14T05:08:42;21.60;;;14.18;;
54464;SDS011;40374;49.480;20.016;2022-09-14T05:11:11;27.02;;;16.35;;
54464;SDS011;40374;49.480;20.016;2022-09-14T05:16:42;21.10;;;14.93;;
54464;SDS011;40374;49.480;20.016;2022-09-14T05:19:14;29.70;;;15.68;;
54464;SDS011;40374;49.480;20.016;2022-09-14T05:21:41;22.23;;;13.57;;
54464;SDS011;40374;49.480;20.016;2022-09-14T05:24:12;16.98;;;11.40;;
54464;SDS011;40374;49.480;20.016;2022-09-14T05:26:41;18.42;;;11.52;;
54464;SDS011;40374;49.480;20.016;2022-09-14T05:29:10;19.55;;;10.82;;
54464;SDS011;40374;49.480;20.016;2022-09-14T05:31:38;21.48;;;10.60;;
54464;SDS011;40374;49.480;20.016;2022-09-14T05:34:05;19.17;;;10.70;;
54464;SDS011;40374;49.480;20.016;2022-09-14T05:36:34;24.92;;;10.73;;
54464;SDS011;40374;49.480;20.016;2022-09-14T05:39:01;18.35;;;11.23;;
54464;SDS011;40374;49.480;20.016;2022-09-14T05:41:28;22.13;;;12.70;;
54464;SDS011;40374;49.480;20.016;2022-09-14T05:43:57;18.08;;;9.43;;
54464;SDS011;40374;49.480;20.016;2022-09-14T05:46:24;18.10;;;10.65;;
54464;SDS011;40374;49.480;20.016;2022-09-14T05:48:51;18.25;;;12.25;;
54464;SDS011;40374;49.480;20.016;2022-09-14T05:51:20;19.75;;;13.55;;
54464;SDS011;40374;49.480;20.016;2022-09-14T05:53:50;19.90;;;11.05;;
54464;SDS011;40374;49.480;20.016;2022-09-14T05:56:18;15.70;;;10.15;;
54464;SDS011;40374;49.480;20.016;2022-09-14T05:58:45;24.38;;;13.95;;
54464;SDS011;40374;49.480;20.016;2022-09-14T06:01:13;17.65;;;12.93;;
54464;SDS011;40374;49.480;20.016;2022-09-14T06:03:42;18.98;;;10.43;;
54464;SDS011;40374;49.480;20.016;2022-09-14T06:06:09;17.20;;;10.20;;
54464;SDS011;40374;49.480;20.016;2022-09-14T06:08:37;13.68;;;9.77;;
54464;SDS011;40374;49.480;20.016;2022-09-14T06:11:09;14.82;;;9.05;;
54464;SDS011;40374;49.480;20.016;2022-09-14T06:13:36;13.77;;;7.80;;
54464;SDS011;40374;49.480;20.016;2022-09-14T06:16:04;20.95;;;8.27;;
54464;SDS011;40374;49.480;20.016;2022-09-14T06:18:32;12.32;;;8.20;;
54464;SDS011;40374;49.480;20.016;2022-09-14T06:21:01;11.40;;;7.47;;
54464;SDS011;40374;49.480;20.016;2022-09-14T06:23:29;14.90;;;7.82;;
54464;SDS011;40374;49.480;20.016;2022-09-14T06:25:58;12.70;;;8.27;;
54464;SDS011;40374;49.480;20.016;2022-09-14T06:28:25;10.18;;;7.30;;
54464;SDS011;40374;49.480;20.016;2022-09-14T06:30:53;13.27;;;7.00;;
54464;SDS011;40374;49.480;20.016;2022-09-14T06:33:20;10.93;;;7.50;;
54464;SDS011;40374;49.480;20.016;2022-09-14T06:36:06;28.60;;;10.93;;
54464;SDS011;40374;49.480;20.016;2022-09-14T06:38:39;15.15;;;8.63;;
54464;SDS011;40374;49.480;20.016;2022-09-14T06:41:07;15.10;;;8.63;;
54464;SDS011;40374;49.480;20.016;2022-09-14T06:43:36;22.30;;;10.57;;
54464;SDS011;40374;49.480;20.016;2022-09-14T06:46:09;16.13;;;8.55;;
54464;SDS011;40374;49.480;20.016;2022-09-14T06:48:37;15.68;;;8.27;;
54464;SDS011;40374;49.480;20.016;2022-09-14T06:53:38;17.45;;;8.30;;
54464;SDS011;40374;49.480;20.016;2022-09-14T06:56:05;11.77;;;7.32;;
54464;SDS011;40374;49.480;20.016;2022-09-14T06:58:33;11.57;;;7.10;;
54464;SDS011;40374;49.480;20.016;2022-09-14T07:01:03;11.63;;;6.88;;
54464;SDS011;40374;49.480;20.016;2022-09-14T07:03:31;13.43;;;6.88;;
54464;SDS011;40374;49.480;20.016;2022-09-14T07:06:04;13.95;;;5.95;;
54464;SDS011;40374;49.480;20.016;2022-09-14T07:08:32;16.33;;;5.93;;
54464;SDS011;40374;49.480;20.016;2022-09-14T07:11:00;18.38;;;6.45;;
54464;SDS011;40374;49.480;20.016;2022-09-14T07:13:28;14.98;;;6.35;;
54464;SDS011;40374;49.480;20.016;2022-09-14T07:15:55;19.25;;;7.25;;
54464;SDS011;40374;49.480;20.016;2022-09-14T07:18:23;12.32;;;6.53;;
54464;SDS011;40374;49.480;20.016;2022-09-14T07:20:54;9.52;;;5.75;;
54464;SDS011;40374;49.480;20.016;2022-09-14T07:23:21;17.42;;;6.95;;
54464;SDS011;40374;49.480;20.016;2022-09-14T07:25:57;11.27;;;7.88;;
54464;SDS011;40374;49.480;20.016;2022-09-14T07:28:25;14.32;;;7.13;;
54464;SDS011;40374;49.480;20.016;2022-09-14T07:30:52;19.70;;;7.05;;
54464;SDS011;40374;49.480;20.016;2022-09-14T07:33:24;9.05;;;6.28;;
54464;SDS011;40374;49.480;20.016;2022-09-14T07:35:52;12.80;;;6.78;;
54464;SDS011;40374;49.480;20.016;2022-09-14T07:38:19;8.32;;;5.47;;
54464;SDS011;40374;49.480;20.016;2022-09-14T07:41:06;12.23;;;5.35;;
54464;SDS011;40374;49.480;20.016;2022-09-14T07:43:34;16.10;;;6.18;;
54464;SDS011;40374;49.480;20.016;2022-09-14T07:46:02;8.75;;;6.25;;
54464;SDS011;40374;49.480;20.016;2022-09-14T07:48:31;17.45;;;6.18;;
54464;SDS011;40374;49.480;20.016;2022-09-14T07:50:59;12.60;;;6.32;;
54464;SDS011;40374;49.480;20.016;2022-09-14T07:53:26;19.38;;;6.10;;
54464;SDS011;40374;49.480;20.016;2022-09-14T07:55:56;9.07;;;5.38;;
54464;SDS011;40374;49.480;20.016;2022-09-14T07:58:24;10.10;;;5.82;;
54464;SDS011;40374;49.480;20.016;2022-09-14T08:00:56;7.85;;;5.18;;
54464;SDS011;40374;49.480;20.016;2022-09-14T08:03:23;17.58;;;5.68;;
54464;SDS011;40374;49.480;20.016;2022-09-14T08:05:57;8.45;;;4.97;;
54464;SDS011;40374;49.480;20.016;2022-09-14T08:08:29;7.53;;;5.17;;
54464;SDS011;40374;49.480;20.016;2022-09-14T08:11:07;6.50;;;5.15;;
54464;SDS011;40374;49.480;20.016;2022-09-14T08:13:38;13.32;;;5.70;;
54464;SDS011;40374;49.480;20.016;2022-09-14T08:16:05;10.20;;;6.88;;
54464;SDS011;40374;49.480;20.016;2022-09-14T08:18:33;8.25;;;5.20;;
54464;SDS011;40374;49.480;20.016;2022-09-14T08:23:31;13.45;;;5.13;;
54464;SDS011;40374;49.480;20.016;2022-09-14T08:26:03;11.02;;;4.63;;
54464;SDS011;40374;49.480;20.016;2022-09-14T08:28:30;9.02;;;4.00;;
54464;SDS011;40374;49.480;20.016;2022-09-14T08:31:01;7.15;;;4.63;;
54464;SDS011;40374;49.480;20.016;2022-09-14T08:33:29;6.80;;;3.97;;
54464;SDS011;40374;49.480;20.016;2022-09-14T08:35:56;7.10;;;4.40;;
54464;SDS011;40374;49.480;20.016;2022-09-14T08:38:24;8.15;;;4.38;;
54464;SDS011;40374;49.480;20.016;2022-09-14T08:40:51;10.85;;;4.78;;
54464;SDS011;40374;49.480;20.016;2022-09-14T08:43:19;11.07;;;4.80;;
54464;SDS011;40374;49.480;20.016;2022-09-14T08:45:47;13.52;;;5.28;;
54464;SDS011;40374;49.480;20.016;2022-09-14T08:48:16;9.77;;;5.68;;
54464;SDS011;40374;49.480;20.016;2022-09-14T08:50:46;17.27;;;8.88;;
54464;SDS011;40374;49.480;20.016;2022-09-14T08:53:13;12.93;;;8.77;;
54464;SDS011;40374;49.480;20.016;2022-09-14T09:00:45;14.07;;;5.97;;
54464;SDS011;40374;49.480;20.016;2022-09-14T09:05:57;12.25;;;5.22;;
54464;SDS011;40374;49.480;20.016;2022-09-14T09:10:56;11.55;;;5.38;;
54464;SDS011;40374;49.480;20.016;2022-09-14T09:13:25;12.05;;;5.28;;
54464;SDS011;40374;49.480;20.016;2022-09-14T09:15:56;8.45;;;5.57;;
54464;SDS011;40374;49.480;20.016;2022-09-14T09:23:34;8.32;;;4.75;;
54464;SDS011;40374;49.480;20.016;2022-09-14T09:28:48;7.63;;;5.07;;
54464;SDS011;40374;49.480;20.016;2022-09-14T09:31:16;12.80;;;5.57;;
54464;SDS011;40374;49.480;20.016;2022-09-14T09:34:15;12.90;;;5.03;;
54464;SDS011;40374;49.480;20.016;2022-09-14T09:36:44;8.48;;;5.22;;
54464;SDS011;40374;49.480;20.016;2022-09-14T09:39:12;14.30;;;4.25;;
54464;SDS011;40374;49.480;20.016;2022-09-14T09:41:50;9.40;;;4.60;;
54464;SDS011;40374;49.480;20.016;2022-09-14T09:44:18;7.25;;;5.35;;
54464;SDS011;40374;49.480;20.016;2022-09-14T09:49:15;14.05;;;5.05;;
54464;SDS011;40374;49.480;20.016;2022-09-14T09:51:43;20.40;;;7.50;;
54464;SDS011;40374;49.480;20.016;2022-09-14T09:56:55;12.07;;;6.20;;
54464;SDS011;40374;49.480;20.016;2022-09-14T10:05:27;16.45;;;8.40;;
54464;SDS011;40374;49.480;20.016;2022-09-14T10:07:35;10.75;;;4.18;;
54464;SDS011;40374;49.480;20.016;2022-09-14T10:12:31;10.07;;;2.42;;
54464;SDS011;40374;49.480;20.016;2022-09-14T10:15:04;4.30;;;2.75;;
54464;SDS011;40374;49.480;20.016;2022-09-14T10:17:32;4.50;;;2.15;;
54464;SDS011;40374;49.480;20.016;2022-09-14T10:19:59;2.83;;;2.20;;
54464;SDS011;40374;49.480;20.016;2022-09-14T10:22:27;2.90;;;2.10;;
54464;SDS011;40374;49.480;20.016;2022-09-14T10:27:39;3.40;;;2.28;;
54464;SDS011;40374;49.480;20.016;2022-09-14T10:30:14;5.38;;;2.22;;
54464;SDS011;40374;49.480;20.016;2022-09-14T10:35:10;4.75;;;2.90;;
54464;SDS011;40374;49.480;20.016;2022-09-14T10:40:13;3.95;;;2.78;;
54464;SDS011;40374;49.480;20.016;2022-09-14T10:55:20;5.18;;;3.10;;
54464;SDS011;40374;49.480;20.016;2022-09-14T10:57:54;10.10;;;3.08;;
54464;SDS011;40374;49.480;20.016;2022-09-14T11:00:24;7.18;;;2.92;;
54464;SDS011;40374;49.480;20.016;2022-09-14T11:03:05;4.40;;;3.00;;
54464;SDS011;40374;49.480;20.016;2022-09-14T11:26:17;3.58;;;2.78;;
54464;SDS011;40374;49.480;20.016;2022-09-14T11:28:47;4.82;;;3.40;;
54464;SDS011;40374;49.480;20.016;2022-09-14T11:36:38;3.60;;;2.80;;
54464;SDS011;40374;49.480;20.016;2022-09-14T11:41:42;3.10;;;2.70;;
54464;SDS011;40374;49.480;20.016;2022-09-14T11:44:13;5.82;;;2.95;;
54464;SDS011;40374;49.480;20.016;2022-09-14T11:46:47;5.30;;;2.40;;
54464;SDS011;40374;49.480;20.016;2022-09-14T11:49:18;7.28;;;3.53;;
54464;SDS011;40374;49.480;20.016;2022-09-14T11:51:48;6.20;;;4.25;;
54464;SDS011;40374;49.480;20.016;2022-09-14T11:54:19;7.90;;;4.30;;
54464;SDS011;40374;49.480;20.016;2022-09-14T11:56:47;6.32;;;3.65;;
54464;SDS011;40374;49.480;20.016;2022-09-14T11:59:35;8.52;;;3.83;;
54464;SDS011;40374;49.480;20.016;2022-09-14T12:12:44;5.70;;;3.22;;
54464;SDS011;40374;49.480;20.016;2022-09-14T12:17:42;3.95;;;3.58;;
54464;SDS011;40374;49.480;20.016;2022-09-14T12:23:04;3.70;;;3.15;;
54464;SDS011;40374;49.480;20.016;2022-09-14T12:25:33;7.38;;;3.30;;
54464;SDS011;40374;49.480;20.016;2022-09-14T12:28:19;4.80;;;3.88;;
54464;SDS011;40374;49.480;20.016;2022-09-14T12:43:50;5.15;;;3.92;;
54464;SDS011;40374;49.480;20.016;2022-09-14T12:53:45;7.05;;;3.72;;
54464;SDS011;40374;49.480;20.016;2022-09-14T13:04:42;14.10;;;5.47;;
54464;SDS011;40374;49.480;20.016;2022-09-14T13:07:15;9.00;;;4.60;;
54464;SDS011;40374;49.480;20.016;2022-09-14T13:09:47;7.25;;;4.43;;
54464;SDS011;40374;49.480;20.016;2022-09-14T13:14:56;6.53;;;4.47;;
54464;SDS011;40374;49.480;20.016;2022-09-14T13:17:23;6.97;;;4.70;;
54464;SDS011;40374;49.480;20.016;2022-09-14T13:19:58;4.78;;;4.07;;
54464;SDS011;40374;49.480;20.016;2022-09-14T13:22:27;8.25;;;6.07;;
54464;SDS011;40374;49.480;20.016;2022-09-14T13:24:55;8.55;;;5.55;;
54464;SDS011;40374;49.480;20.016;2022-09-14T13:30:02;5.90;;;3.50;;
54464;SDS011;40374;49.480;20.016;2022-09-14T13:32:30;4.75;;;4.18;;
54464;SDS011;40374;49.480;20.016;2022-09-14T13:34:57;5.70;;;3.42;;
54464;SDS011;40374;49.480;20.016;2022-09-14T13:37:24;5.57;;;3.67;;
54464;SDS011;40374;49.480;20.016;2022-09-14T13:39:52;4.80;;;3.38;;
54464;SDS011;40374;49.480;20.016;2022-09-14T13:42:21;4.65;;;3.40;;
54464;SDS011;40374;49.480;20.016;2022-09-14T13:44:49;4.25;;;3.45;;
54464;SDS011;40374;49.480;20.016;2022-09-14T13:47:19;6.78;;;4.00;;
54464;SDS011;40374;49.480;20.016;2022-09-14T13:49:47;4.35;;;3.60;;
54464;SDS011;40374;49.480;20.016;2022-09-14T14:00:57;8.00;;;4.20;;
54464;SDS011;40374;49.480;20.016;2022-09-14T14:03:39;5.47;;;3.90;;
54464;SDS011;40374;49.480;20.016;2022-09-14T14:06:19;7.07;;;4.60;;
54464;SDS011;40374;49.480;20.016;2022-09-14T14:09:35;8.52;;;4.60;;
54464;SDS011;40374;49.480;20.016;2022-09-14T14:11:44;9.13;;;4.65;;
54464;SDS011;40374;49.480;20.016;2022-09-14T14:19:30;10.32;;;5.47;;
54464;SDS011;40374;49.480;20.016;2022-09-14T14:22:11;5.57;;;4.20;;
54464;SDS011;40374;49.480;20.016;2022-09-14T14:24:42;6.38;;;5.07;;
54464;SDS011;40374;49.480;20.016;2022-09-14T14:27:33;9.77;;;5.72;;
54464;SDS011;40374;49.480;20.016;2022-09-14T14:30:03;8.80;;;4.85;;
54464;SDS011;40374;49.480;20.016;2022-09-14T14:32:38;9.57;;;6.13;;
54464;SDS011;40374;49.480;20.016;2022-09-14T14:35:15;11.55;;;6.78;;
54464;SDS011;40374;49.480;20.016;2022-09-14T14:37:43;10.70;;;7.22;;
54464;SDS011;40374;49.480;20.016;2022-09-14T14:40:10;12.80;;;6.97;;
54464;SDS011;40374;49.480;20.016;2022-09-14T14:42:38;8.85;;;6.78;;
54464;SDS011;40374;49.480;20.016;2022-09-14T14:45:05;13.30;;;6.65;;
54464;SDS011;40374;49.480;20.016;2022-09-14T14:47:33;10.00;;;6.68;;
54464;SDS011;40374;49.480;20.016;2022-09-14T14:50:00;13.00;;;6.43;;
54464;SDS011;40374;49.480;20.016;2022-09-14T14:52:30;11.52;;;8.07;;
54464;SDS011;40374;49.480;20.016;2022-09-14T14:54:57;10.75;;;6.88;;
54464;SDS011;40374;49.480;20.016;2022-09-14T14:57:24;10.48;;;6.55;;
54464;SDS011;40374;49.480;20.016;2022-09-14T14:59:51;14.07;;;7.75;;
54464;SDS011;40374;49.480;20.016;2022-09-14T15:02:18;11.20;;;7.78;;
54464;SDS011;40374;49.480;20.016;2022-09-14T15:04:45;10.70;;;7.45;;
54464;SDS011;40374;49.480;20.016;2022-09-14T15:07:14;12.25;;;9.20;;
54464;SDS011;40374;49.480;20.016;2022-09-14T15:09:41;20.02;;;12.82;;
54464;SDS011;40374;49.480;20.016;2022-09-14T15:12:12;14.98;;;10.82;;
54464;SDS011;40374;49.480;20.016;2022-09-14T15:14:40;15.43;;;11.10;;
54464;SDS011;40374;49.480;20.016;2022-09-14T15:17:07;16.75;;;11.00;;
54464;SDS011;40374;49.480;20.016;2022-09-14T15:19:34;15.10;;;10.70;;
54464;SDS011;40374;49.480;20.016;2022-09-14T15:22:01;22.52;;;16.55;;
54464;SDS011;40374;49.480;20.016;2022-09-14T15:24:28;27.70;;;19.55;;
54464;SDS011;40374;49.480;20.016;2022-09-14T15:26:55;27.25;;;19.05;;
54464;SDS011;40374;49.480;20.016;2022-09-14T15:29:23;57.13;;;34.63;;
54464;SDS011;40374;49.480;20.016;2022-09-14T15:31:51;33.60;;;21.42;;
54464;SDS011;40374;49.480;20.016;2022-09-14T15:34:18;31.27;;;20.65;;
54464;SDS011;40374;49.480;20.016;2022-09-14T15:36:46;28.40;;;19.70;;
54464;SDS011;40374;49.480;20.016;2022-09-14T15:39:20;28.23;;;20.02;;
54464;SDS011;40374;49.480;20.016;2022-09-14T15:41:48;32.90;;;20.77;;
54464;SDS011;40374;49.480;20.016;2022-09-14T15:44:15;33.63;;;22.27;;
54464;SDS011;40374;49.480;20.016;2022-09-14T15:46:43;33.13;;;21.40;;
54464;SDS011;40374;49.480;20.016;2022-09-14T15:49:18;21.33;;;15.88;;
54464;SDS011;40374;49.480;20.016;2022-09-14T15:51:46;21.05;;;15.38;;
54464;SDS011;40374;49.480;20.016;2022-09-14T15:54:14;22.02;;;14.32;;
54464;SDS011;40374;49.480;20.016;2022-09-14T15:56:41;26.70;;;18.20;;
54464;SDS011;40374;49.480;20.016;2022-09-14T15:59:08;25.98;;;17.38;;
54464;SDS011;40374;49.480;20.016;2022-09-14T16:01:36;24.70;;;18.17;;
54464;SDS011;40374;49.480;20.016;2022-09-14T16:04:04;28.30;;;17.42;;
54464;SDS011;40374;49.480;20.016;2022-09-14T16:06:37;23.73;;;17.85;;
54464;SDS011;40374;49.480;20.016;2022-09-14T16:09:05;28.45;;;19.90;;
54464;SDS011;40374;49.480;20.016;2022-09-14T16:11:33;28.10;;;19.73;;
54464;SDS011;40374;49.480;20.016;2022-09-14T16:14:01;30.35;;;21.52;;
54464;SDS011;40374;49.480;20.016;2022-09-14T16:16:30;34.72;;;22.08;;
54464;SDS011;40374;49.480;20.016;2022-09-14T16:18:57;34.10;;;21.92;;
54464;SDS011;40374;49.480;20.016;2022-09-14T16:21:29;32.40;;;22.08;;
54464;SDS011;40374;49.480;20.016;2022-09-14T16:23:57;35.17;;;23.10;;
54464;SDS011;40374;49.480;20.016;2022-09-14T16:26:26;35.60;;;21.23;;
54464;SDS011;40374;49.480;20.016;2022-09-14T16:28:54;35.72;;;24.30;;
54464;SDS011;40374;49.480;20.016;2022-09-14T16:31:22;30.23;;;21.42;;
54464;SDS011;40374;49.480;20.016;2022-09-14T16:33:51;33.47;;;23.90;;
54464;SDS011;40374;49.480;20.016;2022-09-14T16:36:19;33.58;;;21.30;;
54464;SDS011;40374;49.480;20.016;2022-09-14T16:38:47;44.13;;;25.13;;
54464;SDS011;40374;49.480;20.016;2022-09-14T16:41:14;35.35;;;22.50;;
54464;SDS011;40374;49.480;20.016;2022-09-14T16:43:42;30.33;;;21.60;;
54464;SDS011;40374;49.480;20.016;2022-09-14T16:46:14;30.63;;;21.45;;
54464;SDS011;40374;49.480;20.016;2022-09-14T16:48:42;37.78;;;23.70;;
54464;SDS011;40374;49.480;20.016;2022-09-14T16:51:10;38.88;;;26.23;;
54464;SDS011;40374;49.480;20.016;2022-09-14T16:53:38;35.63;;;24.77;;
54464;SDS011;40374;49.480;20.016;2022-09-14T16:56:07;40.10;;;24.33;;
54464;SDS011;40374;49.480;20.016;2022-09-14T16:58:34;34.78;;;22.88;;
54464;SDS011;40374;49.480;20.016;2022-09-14T17:01:10;36.10;;;23.02;;
54464;SDS011;40374;49.480;20.016;2022-09-14T17:03:37;34.45;;;24.02;;
54464;SDS011;40374;49.480;20.016;2022-09-14T17:06:06;38.08;;;24.80;;
54464;SDS011;40374;49.480;20.016;2022-09-14T17:08:34;42.75;;;26.98;;
54464;SDS011;40374;49.480;20.016;2022-09-14T17:11:04;44.78;;;28.92;;
54464;SDS011;40374;49.480;20.016;2022-09-14T17:13:32;46.08;;;27.17;;
54464;SDS011;40374;49.480;20.016;2022-09-14T17:16:03;40.20;;;26.00;;
54464;SDS011;40374;49.480;20.016;2022-09-14T17:18:31;36.53;;;25.58;;
54464;SDS011;40374;49.480;20.016;2022-09-14T17:21:04;42.83;;;27.52;;
54464;SDS011;40374;49.480;20.016;2022-09-14T17:23:32;41.83;;;28.65;;
54464;SDS011;40374;49.480;20.016;2022-09-14T17:25:59;42.78;;;27.77;;
54464;SDS011;40374;49.480;20.016;2022-09-14T17:28:28;41.85;;;29.75;;
54464;SDS011;40374;49.480;20.016;2022-09-14T17:30:56;47.88;;;32.30;;
54464;SDS011;40374;49.480;20.016;2022-09-14T17:33:24;43.13;;;25.80;;
54464;SDS011;40374;49.480;20.016;2022-09-14T17:35:53;44.88;;;26.83;;
54464;SDS011;40374;49.480;20.016;2022-09-14T17:38:21;39.60;;;26.00;;
54464;SDS011;40374;49.480;20.016;2022-09-14T17:40:48;39.97;;;24.90;;
54464;SDS011;40374;49.480;20.016;2022-09-14T17:43:16;57.85;;;41.15;;